createdAt,value
2019-05-15T00:00:42.386Z,101402.23
2019-05-15T00:03:10.867Z,101396.77
2019-05-15T00:05:39.767Z,101400.70
2019-05-15T00:08:09.424Z,101397.14
2019-05-15T00:10:40.646Z,101394.78
2019-05-15T00:13:09.515Z,101395.28
2019-05-15T00:15:40.224Z,101394.89
2019-05-15T00:18:09.067Z,101385.98
2019-05-15T00:20:39.414Z,101391.61
2019-05-15T00:23:08.656Z,101354.00
2019-05-15T00:25:39.469Z,101392.22
2019-05-15T00:28:09.482Z,101395.57
2019-05-15T00:30:38.760Z,101392.38
2019-05-15T00:33:08.937Z,101386.84
2019-05-15T00:35:50.378Z,101390.50
2019-05-15T00:38:18.857Z,101388.72
2019-05-15T00:40:49.604Z,101383.93
2019-05-15T00:43:18.727Z,101380.09
2019-05-15T00:45:48.825Z,101385.92
2019-05-15T00:48:18.351Z,101382.55
2019-05-15T00:50:48.575Z,101384.50
2019-05-15T00:53:19.770Z,101381.73
2019-05-15T00:55:48.677Z,101383.69
2019-05-15T00:58:19.932Z,101377.41
2019-05-15T01:00:48.653Z,101380.62
2019-05-15T01:03:18.277Z,101381.70
2019-05-15T01:05:48.051Z,101379.36
2019-05-15T01:08:19.139Z,101371.52
2019-05-15T01:10:48.824Z,101372.80
2019-05-15T01:13:19.020Z,101375.06
2019-05-15T01:15:48.941Z,101367.66
2019-05-15T01:18:18.742Z,101373.75
2019-05-15T01:20:49.409Z,101362.82
2019-05-15T01:23:18.753Z,101367.72
2019-05-15T01:25:48.187Z,101361.79
2019-05-15T01:28:18.376Z,101360.67
2019-05-15T01:30:48.718Z,101366.16
2019-05-15T01:33:18.926Z,101368.66
2019-05-15T01:35:49.054Z,101367.11
2019-05-15T01:38:18.730Z,101365.34
2019-05-15T01:40:48.466Z,101368.88
2019-05-15T01:43:18.766Z,101362.72
2019-05-15T01:45:48.300Z,101358.10
2019-05-15T01:48:18.733Z,101360.77
2019-05-15T01:50:46.086Z,101359.13
2019-05-15T01:53:13.968Z,101355.82
2019-05-15T01:55:41.830Z,101360.38
2019-05-15T01:58:09.705Z,101360.27
2019-05-15T02:00:39.271Z,101354.34
2019-05-15T02:03:09.713Z,101362.84
2019-05-15T02:05:39.137Z,101355.30
2019-05-15T02:08:08.300Z,101349.02
2019-05-15T02:10:39.158Z,101353.80
2019-05-15T02:13:08.600Z,101350.03
2019-05-15T02:15:39.533Z,101348.16
2019-05-15T02:18:08.679Z,101351.39
2019-05-15T02:20:38.999Z,101352.28
2019-05-15T02:23:11.785Z,101351.43
2019-05-15T02:25:38.735Z,101345.56
2019-05-15T02:28:09.111Z,101348.35
2019-05-15T02:30:40.382Z,101349.20
2019-05-15T02:33:10.104Z,101352.83
2019-05-15T02:35:39.240Z,101349.98
2019-05-15T02:38:09.395Z,101304.89
2019-05-15T02:40:35.816Z,101342.58
2019-05-15T02:43:09.618Z,101333.38
2019-05-15T02:45:40.593Z,101336.52
2019-05-15T02:48:08.928Z,101304.45
2019-05-15T02:50:39.247Z,101344.22
2019-05-15T02:53:09.872Z,101339.76
2019-05-15T02:55:40.403Z,101340.25
2019-05-15T02:58:09.896Z,101342.54
2019-05-15T03:00:47.688Z,101341.64
2019-05-15T03:03:09.583Z,101333.51
2019-05-15T03:05:40.921Z,101341.05
2019-05-15T03:08:09.681Z,101338.29
2019-05-15T03:10:40.553Z,101336.03
2019-05-15T03:13:09.786Z,101340.61
2019-05-15T03:15:40.192Z,101342.06
2019-05-15T03:18:09.512Z,101346.98
2019-05-15T03:20:38.881Z,101342.41
2019-05-15T03:23:09.698Z,101344.01
2019-05-15T03:25:35.985Z,101343.20
2019-05-15T03:28:03.831Z,101341.27
2019-05-15T03:30:41.829Z,101346.37
2019-05-15T03:33:09.486Z,101333.75
2019-05-15T03:35:33.219Z,101349.14
2019-05-15T03:38:01.957Z,101342.89
2019-05-15T03:40:30.182Z,101338.59
2019-05-15T03:42:59.450Z,101341.74
2019-05-15T03:45:29.697Z,101341.64
2019-05-15T03:48:01.117Z,101341.06
2019-05-15T03:50:31.732Z,101342.29
2019-05-15T03:53:00.752Z,101338.94
2019-05-15T03:55:29.744Z,101337.45
2019-05-15T03:57:59.188Z,101342.13
2019-05-15T04:00:30.134Z,101332.83
2019-05-15T04:02:59.104Z,101325.09
2019-05-15T04:05:29.370Z,101329.75
2019-05-15T04:07:59.888Z,101332.08
2019-05-15T04:10:28.843Z,101325.75
2019-05-15T04:12:59.962Z,101328.46
2019-05-15T04:15:30.198Z,101328.96
2019-05-15T04:18:00.325Z,101332.91
2019-05-15T04:20:29.694Z,101334.38
2019-05-15T04:23:00.020Z,101333.45
2019-05-15T04:25:29.478Z,101334.33
2019-05-15T04:27:58.814Z,101332.20
2019-05-15T04:30:26.068Z,101329.35
2019-05-15T04:32:53.417Z,101332.84
2019-05-15T04:35:20.746Z,101342.99
2019-05-15T04:37:49.536Z,101339.45
2019-05-15T04:40:19.379Z,101345.59
2019-05-15T04:42:49.789Z,101341.22
2019-05-15T04:45:19.342Z,101336.53
2019-05-15T04:47:45.873Z,101345.94
2019-05-15T04:50:13.193Z,101340.37
2019-05-15T04:52:43.190Z,101348.55
2019-05-15T04:55:10.642Z,101352.03
2019-05-15T04:57:40.146Z,101350.72
2019-05-15T05:00:09.621Z,101355.14
2019-05-15T05:02:39.890Z,101354.21
2019-05-15T05:05:10.220Z,101351.41
2019-05-15T05:07:39.243Z,101347.67
2019-05-15T05:10:09.538Z,101346.59
2019-05-15T05:12:40.993Z,101347.69
2019-05-15T05:15:08.465Z,101351.66
2019-05-15T05:17:35.390Z,101348.83
2019-05-15T05:20:02.760Z,101351.27
2019-05-15T05:22:30.142Z,101348.12
2019-05-15T05:24:58.459Z,101356.36
2019-05-15T05:27:25.846Z,101366.52
2019-05-15T05:29:53.127Z,101367.86
2019-05-15T05:32:30.942Z,101375.95
2019-05-15T05:34:49.535Z,101335.70
2019-05-15T05:37:18.452Z,101364.44
2019-05-15T05:39:45.781Z,101364.61
2019-05-15T05:42:13.735Z,101362.31
2019-05-15T05:44:42.730Z,101370.62
2019-05-15T05:47:10.096Z,101364.31
2019-05-15T05:49:38.186Z,101358.87
2019-05-15T05:52:08.260Z,101359.31
2019-05-15T05:54:34.833Z,101360.42
2019-05-15T05:57:02.089Z,101361.91
2019-05-15T05:59:29.828Z,101359.40
2019-05-15T06:01:58.991Z,101353.09
2019-05-15T06:04:27.930Z,101351.58
2019-05-15T06:07:07.226Z,101354.17
2019-05-15T06:09:24.589Z,101356.19
2019-05-15T06:11:51.927Z,101348.34
2019-05-15T06:14:19.480Z,101350.16
2019-05-15T06:16:48.228Z,101348.56
2019-05-15T06:19:15.631Z,101354.44
2019-05-15T06:21:54.614Z,101348.27
2019-05-15T06:24:13.280Z,101355.33
2019-05-15T06:26:40.621Z,101344.88
2019-05-15T06:29:08.876Z,101350.70
2019-05-15T06:31:38.665Z,101349.97
2019-05-15T06:34:05.567Z,101349.78
2019-05-15T06:36:32.849Z,101351.60
2019-05-15T06:39:00.218Z,101357.26
2019-05-15T06:41:28.659Z,101347.16
2019-05-15T06:43:56.053Z,101348.80
2019-05-15T06:46:23.433Z,101347.02
2019-05-15T06:48:50.794Z,101352.47
2019-05-15T06:51:18.325Z,101342.83
2019-05-15T06:53:45.751Z,101312.06
2019-05-15T06:56:13.008Z,101332.64
2019-05-15T06:58:40.336Z,101339.66
2019-05-15T07:01:08.726Z,101340.61
2019-05-15T07:03:38.915Z,101338.53
2019-05-15T07:06:05.660Z,101337.38
2019-05-15T07:08:33.055Z,101340.61
2019-05-15T07:11:00.459Z,101331.72
2019-05-15T07:13:28.971Z,101341.14
2019-05-15T07:15:58.500Z,101338.46
2019-05-15T07:18:28.157Z,101332.42
2019-05-15T07:20:54.990Z,101340.83
2019-05-15T07:23:22.238Z,101330.34
2019-05-15T07:25:50.300Z,101330.52
2019-05-15T07:28:18.450Z,101335.88
2019-05-15T07:30:45.879Z,101331.27
2019-05-15T07:33:13.243Z,101333.27
2019-05-15T07:35:40.659Z,101303.80
2019-05-15T07:38:08.100Z,101321.86
2019-05-15T07:40:38.321Z,101306.84
2019-05-15T07:43:04.599Z,101309.98
2019-05-15T07:45:31.856Z,101309.31
2019-05-15T07:47:59.191Z,101282.41
2019-05-15T07:50:26.472Z,101311.92
2019-05-15T07:52:53.757Z,101305.92
2019-05-15T07:55:20.996Z,101312.91
2019-05-15T07:57:49.646Z,101307.48
2019-05-15T08:00:19.260Z,101314.72
2019-05-15T08:02:48.154Z,101311.11
2019-05-15T08:05:18.225Z,101309.22
2019-05-15T08:07:45.633Z,101304.09
2019-05-15T08:10:13.254Z,101308.16
2019-05-15T08:12:40.504Z,101300.18
2019-05-15T08:15:09.068Z,101303.30
2019-05-15T08:17:58.050Z,101295.17
2019-05-15T08:20:09.043Z,101291.05
2019-05-15T08:22:38.249Z,101293.23
2019-05-15T08:25:11.366Z,101295.00
2019-05-15T08:27:38.251Z,101283.48
2019-05-15T08:30:08.929Z,101280.42
2019-05-15T08:32:36.075Z,101274.00
2019-05-15T08:37:29.215Z,101267.03
2019-05-15T08:39:59.408Z,101268.61
2019-05-15T08:42:28.138Z,101282.23
2019-05-15T08:44:55.108Z,101278.41
2019-05-15T08:47:22.619Z,101275.53
2019-05-15T08:49:49.886Z,101272.78
2019-05-15T08:52:18.884Z,101264.36
2019-05-15T08:54:48.649Z,101266.16
2019-05-15T08:57:15.665Z,101263.66
2019-05-15T08:59:42.963Z,101262.25
2019-05-15T09:04:40.438Z,101262.42
2019-05-15T09:07:09.206Z,101259.20
2019-05-15T09:09:38.366Z,101251.57
2019-05-15T09:12:08.221Z,101256.95
2019-05-15T09:14:35.195Z,101248.75
2019-05-15T09:17:02.484Z,101241.98
2019-05-15T09:19:29.771Z,101244.42
2019-05-15T09:21:58.467Z,101241.33
2019-05-15T09:24:28.414Z,101235.44
2019-05-15T09:26:55.142Z,101234.69
2019-05-15T09:29:22.409Z,101233.90
2019-05-15T09:31:49.680Z,101227.73
2019-05-15T09:34:18.552Z,101226.84
2019-05-15T09:36:48.387Z,101227.61
2019-05-15T09:39:15.313Z,101217.69
2019-05-15T09:41:42.625Z,101215.29
2019-05-15T09:44:10.142Z,101214.65
2019-05-15T09:46:38.301Z,101209.91
2019-05-15T09:49:08.596Z,101220.05
2019-05-15T09:51:35.142Z,101204.03
2019-05-15T09:54:02.549Z,101200.28
2019-05-15T09:56:29.851Z,101205.84
2019-05-15T09:58:58.150Z,101204.25
2019-05-15T10:01:28.324Z,101201.61
2019-05-15T10:03:54.790Z,101195.72
2019-05-15T10:06:22.177Z,101199.78
2019-05-15T10:08:49.552Z,101194.14
2019-05-15T10:11:19.509Z,101159.01
2019-05-15T10:13:46.047Z,101179.44
2019-05-15T10:16:13.462Z,101172.67
2019-05-15T10:18:40.801Z,101171.84
2019-05-15T10:21:08.949Z,101167.02
2019-05-15T10:23:39.712Z,101162.91
2019-05-15T10:26:13.123Z,101160.70
2019-05-15T10:28:35.025Z,101149.71
2019-05-15T10:31:02.400Z,101150.20
2019-05-15T10:33:30.164Z,101154.11
2019-05-15T10:35:59.167Z,101159.16
2019-05-15T10:38:28.504Z,101152.10
2019-05-15T10:41:08.437Z,101144.89
2019-05-15T10:43:25.128Z,101137.20
2019-05-15T10:45:54.702Z,101136.95
2019-05-15T10:48:21.592Z,101135.36
2019-05-15T10:50:48.867Z,101133.41
2019-05-15T10:53:18.804Z,101133.38
2019-05-15T10:55:46.114Z,101115.63
2019-05-15T10:58:17.475Z,101121.38
2019-05-15T11:00:44.254Z,101114.40
2019-05-15T11:03:15.693Z,101117.10
2019-05-15T11:06:03.015Z,101116.97
2019-05-15T11:08:33.103Z,101116.17
2019-05-15T11:11:10.078Z,101108.45
2019-05-15T11:13:42.494Z,101076.00
2019-05-15T11:16:11.687Z,101105.30
2019-05-15T11:18:40.704Z,101102.90
2019-05-15T11:21:10.640Z,101108.28
2019-05-15T11:23:42.526Z,101100.16
2019-05-15T11:26:09.601Z,101102.34
2019-05-15T11:28:39.157Z,101097.13
2019-05-15T11:31:10.143Z,101103.83
2019-05-15T11:33:38.447Z,101089.81
2019-05-15T11:36:06.521Z,101086.64
2019-05-15T11:38:35.212Z,101076.76
2019-05-15T11:41:04.678Z,101075.05
2019-05-15T11:43:32.115Z,101074.42
2019-05-15T11:45:59.463Z,101070.89
2019-05-15T11:48:29.557Z,101076.15
2019-05-15T11:50:57.207Z,101066.76
2019-05-15T11:53:24.629Z,101069.59
2019-05-15T11:55:55.473Z,101063.27
2019-05-15T11:58:23.120Z,101061.19
2019-05-15T12:00:57.920Z,101065.02
2019-05-15T12:03:29.138Z,101060.75
2019-05-15T12:05:59.704Z,101056.72
2019-05-15T12:08:25.656Z,101071.91
2019-05-15T12:10:52.994Z,101067.32
2019-05-15T12:13:20.309Z,101067.98
2019-05-15T12:15:48.430Z,101062.88
2019-05-15T12:18:15.963Z,101055.81
2019-05-15T12:20:43.242Z,101051.09
2019-05-15T12:23:10.489Z,101053.77
2019-05-15T12:25:39.465Z,101046.55
2019-05-15T12:28:09.543Z,101046.98
2019-05-15T12:30:40.132Z,101044.92
2019-05-15T12:33:06.156Z,101041.23
2019-05-15T12:35:33.479Z,101024.05
2019-05-15T12:38:00.956Z,101028.00
2019-05-15T13:00:22.213Z,101019.55
2019-05-15T13:02:49.508Z,101011.99
2019-05-15T13:05:19.065Z,100996.65
2019-05-15T13:07:48.194Z,101005.49
2019-05-15T13:10:18.435Z,101000.16
2019-05-15T13:12:59.177Z,100993.15
2019-05-15T13:15:14.816Z,100985.86
2019-05-15T13:17:42.223Z,100985.06
2019-05-15T13:20:09.847Z,100983.38
2019-05-15T13:22:39.248Z,100980.21
2019-05-15T13:25:08.495Z,100979.04
2019-05-15T13:27:38.211Z,100977.06
2019-05-15T13:30:05.667Z,100967.06
2019-05-15T13:32:33.022Z,100974.16
2019-05-15T13:35:00.312Z,100958.93
2019-05-15T13:37:30.736Z,100964.33
2019-05-15T13:39:58.681Z,100961.42
2019-05-15T13:42:28.022Z,100959.06
2019-05-15T13:44:55.344Z,100964.55
2019-05-15T13:47:22.703Z,100957.86
2019-05-15T13:49:50.099Z,100950.03
2019-05-15T13:52:18.737Z,100959.97
2019-05-15T13:54:48.356Z,100957.03
2019-05-15T13:57:17.947Z,100956.04
2019-05-15T13:59:45.105Z,100950.80
2019-05-15T14:02:12.523Z,100946.13
2019-05-15T14:04:39.911Z,100956.34
2019-05-15T14:07:08.557Z,100951.41
2019-05-15T14:09:43.507Z,100949.22
2019-05-15T14:12:05.217Z,100943.66
2019-05-15T14:14:32.596Z,100943.30
2019-05-15T14:16:59.939Z,100939.39
2019-05-15T14:19:28.036Z,100939.16
2019-05-15T14:21:55.378Z,100931.83
2019-05-15T14:24:22.911Z,100938.39
2019-05-15T14:26:50.234Z,100939.75
2019-05-15T14:29:18.934Z,100936.32
2019-05-15T14:31:48.321Z,100924.52
2019-05-15T14:34:18.443Z,100922.88
2019-05-15T14:36:45.066Z,100918.19
2019-05-15T14:39:12.346Z,100914.36
2019-05-15T14:41:39.653Z,100917.65
2019-05-15T14:44:17.322Z,100916.39
2019-05-15T14:46:38.229Z,100910.74
2019-05-15T14:49:05.509Z,100918.97
2019-05-15T14:51:32.825Z,100912.22
2019-05-15T14:54:00.409Z,100910.64
2019-05-15T14:56:28.525Z,100906.73
2019-05-15T14:58:58.441Z,100900.48
2019-05-15T15:01:25.251Z,100906.50
2019-05-15T15:03:54.784Z,100898.16
2019-05-15T15:06:22.053Z,100885.30
2019-05-15T15:08:50.427Z,100882.20
2019-05-15T15:11:18.008Z,100879.23
2019-05-15T15:13:45.447Z,100873.77
2019-05-15T15:16:12.697Z,100874.20
2019-05-15T15:18:40.061Z,100875.84
2019-05-15T15:21:08.648Z,100875.84
2019-05-15T15:23:38.576Z,100884.94
2019-05-15T15:26:05.523Z,100880.34
2019-05-15T15:28:32.790Z,100880.77
2019-05-15T15:31:00.143Z,100884.47
2019-05-15T15:33:28.882Z,100879.16
2019-05-15T15:35:58.056Z,100878.75
2019-05-15T15:38:38.110Z,100872.95
2019-05-15T15:40:54.940Z,100872.10
2019-05-15T15:43:22.451Z,100874.88
2019-05-15T15:45:49.849Z,100866.94
2019-05-15T15:48:19.310Z,100861.73
2019-05-15T15:50:48.668Z,100853.11
2019-05-15T15:53:15.776Z,100850.91
2019-05-15T15:55:43.358Z,100847.00
2019-05-15T15:58:10.691Z,100853.88
2019-05-15T16:00:38.587Z,100859.27
2019-05-15T16:03:08.211Z,100845.55
2019-05-15T16:05:35.306Z,100852.77
2019-05-15T16:08:02.560Z,100845.19
2019-05-15T16:10:29.816Z,100854.78
2019-05-15T16:12:58.231Z,100851.38
2019-05-15T16:15:25.662Z,100842.19
2019-05-15T16:17:53.231Z,100839.10
2019-05-15T16:20:20.525Z,100838.39
2019-05-15T16:22:48.554Z,100828.94
2019-05-15T16:25:17.919Z,100827.84
2019-05-15T16:27:45.288Z,100819.75
2019-05-15T16:30:12.879Z,100826.16
2019-05-15T16:33:48.153Z,100825.05
2019-05-15T16:36:18.298Z,100808.11
2019-05-15T16:38:48.181Z,100808.11
2019-05-15T16:41:18.437Z,100816.67
2019-05-15T16:43:45.643Z,100820.17
2019-05-15T16:46:13.269Z,100801.81
2019-05-15T16:48:42.681Z,100811.86
2019-05-15T16:51:10.668Z,100809.35
2019-05-15T16:53:38.408Z,100819.99
2019-05-15T16:56:05.634Z,100813.66
2019-05-15T16:58:33.222Z,100811.38
2019-05-15T17:01:00.634Z,100813.45
2019-05-15T17:03:28.887Z,100809.16
2019-05-15T17:05:58.798Z,100818.80
2019-05-15T17:08:28.505Z,100809.60
2019-05-15T17:10:55.671Z,100817.73
2019-05-15T17:13:23.050Z,100813.28
2019-05-15T17:15:50.291Z,100816.84
2019-05-15T17:18:18.212Z,100812.07
2019-05-15T17:20:45.501Z,100819.06
2019-05-15T17:23:12.889Z,100812.43
2019-05-15T17:25:40.186Z,100816.39
2019-05-15T17:28:09.197Z,100810.42
2019-05-15T17:30:38.236Z,100814.29
2019-05-15T17:33:05.754Z,100806.09
2019-05-15T17:35:33.033Z,100809.91
2019-05-15T17:38:00.316Z,100806.13
2019-05-15T17:40:28.419Z,100813.88
2019-05-15T17:42:58.424Z,100802.65
2019-05-15T17:45:25.195Z,100805.67
2019-05-15T17:47:52.732Z,100808.28
2019-05-15T17:50:20.076Z,100814.80
2019-05-15T17:52:49.164Z,100817.19
2019-05-15T17:55:18.355Z,100809.81
2019-05-15T17:57:53.795Z,100814.72
2019-05-15T18:00:15.085Z,100810.03
2019-05-15T18:02:42.509Z,100818.28
2019-05-15T18:05:11.160Z,100812.05
2019-05-15T18:07:39.090Z,100815.25
2019-05-15T18:10:08.444Z,100812.78
2019-05-15T18:12:38.501Z,100816.60
2019-05-15T18:15:05.976Z,100824.32
2019-05-15T18:17:33.359Z,100820.13
2019-05-15T18:20:00.602Z,100820.67
2019-05-15T18:22:28.044Z,100812.92
2019-05-15T18:24:55.289Z,100820.97
2019-05-15T18:27:22.509Z,100823.83
2019-05-15T18:29:49.933Z,100819.85
2019-05-15T18:32:18.972Z,100819.92
2019-05-15T18:34:48.684Z,100823.27
2019-05-15T18:37:15.559Z,100821.83
2019-05-15T18:39:42.809Z,100817.23
2019-05-15T18:42:10.196Z,100826.18
2019-05-15T18:44:39.319Z,100824.13
2019-05-15T18:47:08.662Z,100836.91
2019-05-15T18:49:37.990Z,100828.20
2019-05-15T18:52:05.198Z,100832.47
2019-05-15T18:54:32.667Z,100831.92
2019-05-15T18:57:00.686Z,100831.67
2019-05-15T18:59:28.578Z,100832.64
2019-05-15T19:01:58.621Z,100841.63
2019-05-15T19:04:28.710Z,100840.28
2019-05-15T19:06:55.525Z,100846.05
2019-05-15T19:09:22.928Z,100843.23
2019-05-15T19:11:50.230Z,100838.81
2019-05-15T19:14:19.170Z,100835.69
2019-05-15T19:16:48.456Z,100834.89
2019-05-15T19:19:18.431Z,100839.40
2019-05-15T19:21:45.252Z,100834.86
2019-05-15T19:24:12.631Z,100844.40
2019-05-15T19:26:40.861Z,100839.05
2019-05-15T19:29:08.416Z,100840.39
2019-05-15T19:31:35.671Z,100850.58
2019-05-15T19:34:02.919Z,100843.28
2019-05-15T19:36:30.376Z,100846.27
2019-05-15T19:38:57.652Z,100849.44
2019-05-15T19:41:25.018Z,100845.33
2019-05-15T19:43:52.280Z,100853.68
2019-05-15T19:46:19.549Z,100849.98
2019-05-15T19:48:48.819Z,100857.00
2019-05-15T19:51:18.157Z,100856.66
2019-05-15T19:53:47.736Z,100861.16
2019-05-15T19:56:14.731Z,100877.18
2019-05-15T19:58:42.062Z,100881.88
2019-05-15T20:01:09.437Z,100872.52
2019-05-15T20:03:49.374Z,100869.20
2019-05-15T20:06:07.891Z,100848.65
2019-05-15T20:08:38.386Z,100841.83
2019-05-15T20:11:05.707Z,100843.16
2019-05-15T20:13:33.567Z,100841.16
2019-05-15T20:16:00.934Z,100829.65
2019-05-15T20:18:28.279Z,100836.83
2019-05-15T20:20:58.341Z,100840.15
2019-05-15T20:23:25.106Z,100839.16
2019-05-15T20:25:52.568Z,100836.00
2019-05-15T20:28:19.931Z,100832.33
2019-05-15T20:30:48.187Z,100837.98
2019-05-15T20:33:17.828Z,100837.65
2019-05-15T20:35:45.029Z,100835.16
2019-05-15T20:38:12.279Z,100843.84
2019-05-15T20:40:39.739Z,100843.49
2019-05-15T20:43:08.195Z,100838.17
2019-05-15T20:45:35.945Z,100838.66
2019-05-15T20:48:03.595Z,100833.15
2019-05-15T20:50:30.885Z,100835.14
2019-05-15T20:52:58.807Z,100840.50
2019-05-15T20:55:26.491Z,100843.33
2019-05-15T20:57:53.889Z,100844.68
2019-05-15T21:00:21.390Z,100841.33
2019-05-15T21:02:48.841Z,100837.98
2019-05-15T21:05:18.366Z,100840.84
2019-05-15T21:07:47.938Z,100839.33
2019-05-15T21:10:14.803Z,100838.34
2019-05-15T21:12:42.142Z,100834.66
2019-05-15T21:15:09.578Z,100834.66
2019-05-15T21:17:40.367Z,100830.33
2019-05-15T21:20:09.045Z,100824.31
2019-05-15T21:22:35.523Z,100821.33
2019-05-15T21:25:02.964Z,100816.30
2019-05-15T21:27:32.500Z,100819.83
2019-05-15T21:29:59.550Z,100818.33
2019-05-15T21:32:28.527Z,100814.30
2019-05-15T21:34:58.273Z,100817.80
2019-05-15T21:37:27.510Z,100808.81
2019-05-15T21:39:58.905Z,100807.63
2019-05-15T21:42:25.976Z,100806.32
2019-05-15T21:44:53.254Z,100798.81
2019-05-15T21:47:21.034Z,100797.48
2019-05-15T21:49:49.252Z,100798.98
2019-05-15T21:52:18.525Z,100798.31
2019-05-15T21:54:47.477Z,100795.98
2019-05-15T21:57:32.402Z,100796.64
2019-05-15T21:59:45.353Z,100793.81
2019-05-15T22:02:12.727Z,100793.78
2019-05-15T22:04:51.788Z,100794.32
2019-05-15T22:07:10.216Z,100788.80
2019-05-15T22:09:38.158Z,100792.76
2019-05-15T22:12:06.299Z,100794.91
2019-05-15T22:14:33.577Z,100795.77
2019-05-15T22:17:00.879Z,100791.41
2019-05-15T22:19:30.189Z,100796.77
2019-05-15T22:21:58.636Z,100798.07
2019-05-15T22:24:28.414Z,100798.92
2019-05-15T22:26:55.233Z,100791.93
2019-05-15T22:29:22.555Z,100785.91
2019-05-15T22:31:49.843Z,100781.83
2019-05-15T22:34:18.459Z,100775.50
2019-05-15T22:36:46.041Z,100776.89
2019-05-15T22:39:13.399Z,100776.56
2019-05-15T22:41:40.635Z,100768.57
2019-05-15T22:44:10.032Z,100767.08
2019-05-15T22:46:38.261Z,100768.72
2019-05-15T22:49:05.700Z,100759.39
2019-05-15T22:51:33.082Z,100763.48
2019-05-15T22:54:00.450Z,100754.36
2019-05-15T22:56:29.661Z,100751.91
2019-05-15T22:58:58.407Z,100721.17
2019-05-15T23:01:26.438Z,100750.86
2019-05-15T23:03:54.435Z,100749.02
2019-05-15T23:06:21.852Z,100742.84
2019-05-15T23:08:49.571Z,100743.50
2019-05-15T23:11:18.284Z,100742.16
2019-05-15T23:13:48.434Z,100743.17
2019-05-15T23:16:18.182Z,100740.85
2019-05-15T23:18:45.104Z,100739.02
2019-05-15T23:21:12.493Z,100726.83
2019-05-15T23:23:39.835Z,100726.31
2019-05-15T23:26:07.079Z,100715.32
2019-05-15T23:28:34.315Z,100723.98
2019-05-15T23:31:01.573Z,100721.13
2019-05-15T23:33:28.905Z,100718.64
2019-05-15T23:35:58.566Z,100717.67
2019-05-15T23:38:25.468Z,100717.83
2019-05-15T23:40:52.725Z,100715.44
2019-05-15T23:43:20.013Z,100713.08
2019-05-15T23:45:48.388Z,100714.28
2019-05-15T23:48:15.813Z,100702.58
2019-05-15T23:50:43.148Z,100696.88
2019-05-15T23:53:10.446Z,100692.66
2019-05-15T23:55:38.760Z,100696.48
2019-05-15T23:58:05.981Z,100686.78
